Time;durP1;ratioP1;P1;durP2;ratioP2;P2;SDS_P1;SDS_P2;PMS_P1;PMS_P2;Temp;Humidity;BMP_temperature;BMP_pressure;BME280_temperature;BME280_humidity;BME280_pressure;Samples;Min_cycle;Max_cycle;Signal;HPM_P1;HPM_P2
2023/08/31 00:01:49;;;;;;;0.10;0.10;;;14.50;99.90;;;;;;5068789;28;20485;-78
2023/08/31 00:04:14;;;;;;;0.10;0.10;;;14.50;99.90;;;;;;5088170;28;20518;-78
2023/08/31 00:06:41;;;;;;;0.10;0.10;;;14.50;99.90;;;;;;5092363;28;20186;-78
2023/08/31 00:09:09;;;;;;;0.10;0.10;;;14.50;99.90;;;;;;5092448;28;20707;-78
2023/08/31 00:11:35;;;;;;;0.10;0.10;;;14.40;99.90;;;;;;5085221;28;20458;-78
2023/08/31 00:14:01;;;;;;;0.10;0.10;;;14.40;99.90;;;;;;5089906;28;20443;-78
2023/08/31 00:16:26;;;;;;;0.10;0.10;;;14.40;99.90;;;;;;5088692;28;20450;-78
2023/08/31 00:18:52;;;;;;;0.10;0.10;;;14.40;99.90;;;;;;5088772;28;20187;-78
2023/08/31 00:21:18;;;;;;;0.10;0.10;;;14.30;99.90;;;;;;5090713;28;20736;-78
2023/08/31 00:23:43;;;;;;;0.10;0.10;;;14.30;99.90;;;;;;5089853;28;20443;-78
2023/08/31 00:26:10;;;;;;;0.10;0.10;;;14.30;99.90;;;;;;5088751;28;20590;-78
2023/08/31 00:28:36;;;;;;;0.10;0.10;;;14.30;99.90;;;;;;5086090;28;20177;-78
2023/08/31 00:31:03;;;;;;;0.10;0.10;;;14.30;99.90;;;;;;5084319;28;20769;-78
2023/08/31 00:33:28;;;;;;;0.10;0.10;;;14.30;99.90;;;;;;5088985;28;20552;-78
2023/08/31 00:35:56;;;;;;;0.10;0.10;;;14.20;99.90;;;;;;5088594;28;20967;-78
2023/08/31 00:38:21;;;;;;;0.10;0.10;;;14.20;99.90;;;;;;5070730;28;20189;-78
2023/08/31 00:40:47;;;;;;;0.10;0.10;;;14.20;99.90;;;;;;5085483;28;21014;-77
2023/08/31 00:43:15;;;;;;;0.17;0.17;;;14.20;99.90;;;;;;5070911;28;20189;-78
2023/08/31 00:45:41;;;;;;;0.10;0.10;;;14.10;99.90;;;;;;5068463;28;20530;-78
2023/08/31 00:48:07;;;;;;;0.10;0.10;;;14.20;99.90;;;;;;5089983;28;20525;-78
2023/08/31 00:50:33;;;;;;;0.10;0.10;;;14.20;99.90;;;;;;5086517;28;20443;-78
2023/08/31 00:52:59;;;;;;;0.10;0.10;;;14.20;99.90;;;;;;5071939;28;20446;-78
2023/08/31 00:55:25;;;;;;;0.10;0.10;;;14.20;99.90;;;;;;5068620;28;20225;-77
2023/08/31 00:57:50;;;;;;;0.17;0.17;;;14.20;99.90;;;;;;5069626;28;20555;-77
2023/08/31 01:00:16;;;;;;;0.10;0.10;;;14.20;99.90;;;;;;5085807;28;20192;-77
2023/08/31 01:02:58;;;;;;;0.10;0.10;;;14.20;99.90;;;;;;5087996;28;20648;-78
2023/08/31 01:05:37;;;;;;;0.10;0.10;;;14.10;99.90;;;;;;5068108;28;20539;-78
2023/08/31 01:08:33;;;;;;;0.10;0.10;;;14.20;99.90;;;;;;5082110;28;20455;-77
2023/08/31 01:11:05;;;;;;;0.10;0.10;;;14.10;99.90;;;;;;5080432;28;20447;-78
2023/08/31 01:13:32;;;;;;;0.10;0.10;;;14.20;99.90;;;;;;5089518;28;20835;-78
2023/08/31 01:16:03;;;;;;;0.10;0.10;;;14.10;99.90;;;;;;5086772;28;20431;-78
2023/08/31 01:18:31;;;;;;;0.10;0.10;;;14.00;99.90;;;;;;5084619;28;20507;-78
2023/08/31 01:21:25;;;;;;;0.10;0.10;;;14.00;99.90;;;;;;5087855;28;20478;-78
2023/08/31 01:23:55;;;;;;;0.10;0.10;;;14.00;99.90;;;;;;5088371;28;20590;-77
2023/08/31 01:26:24;;;;;;;0.10;0.10;;;14.00;99.90;;;;;;5086995;28;20434;-78
2023/08/31 01:28:51;;;;;;;0.10;0.10;;;14.00;99.90;;;;;;5087002;28;20532;-77
2023/08/31 01:31:17;;;;;;;0.10;0.10;;;14.00;99.90;;;;;;5085085;28;20435;-77
2023/08/31 01:33:42;;;;;;;0.10;0.10;;;14.00;99.90;;;;;;5086687;28;20470;-77
2023/08/31 01:36:29;;;;;;;0.10;0.10;;;14.00;99.90;;;;;;5085234;28;20453;-78
2023/08/31 01:39:10;;;;;;;0.10;0.10;;;14.00;99.90;;;;;;5088476;28;20180;-78
2023/08/31 01:41:38;;;;;;;0.10;0.10;;;14.00;99.90;;;;;;5079206;28;20486;-78
2023/08/31 01:44:05;;;;;;;0.10;0.10;;;13.90;99.90;;;;;;5088131;28;20450;-78
2023/08/31 01:46:31;;;;;;;0.10;0.10;;;13.90;99.90;;;;;;5088024;28;20443;-78
2023/08/31 01:48:57;;;;;;;0.10;0.10;;;13.90;99.90;;;;;;5087156;28;20446;-77
2023/08/31 01:51:22;;;;;;;0.10;0.10;;;13.90;99.90;;;;;;5086960;28;20276;-77
2023/08/31 01:53:48;;;;;;;0.10;0.10;;;13.90;99.90;;;;;;5087026;28;20226;-77
2023/08/31 01:56:13;;;;;;;0.10;0.10;;;13.90;99.90;;;;;;5089481;28;20272;-77
2023/08/31 01:58:39;;;;;;;0.10;0.10;;;13.90;99.90;;;;;;5089577;28;20188;-78
2023/08/31 02:01:04;;;;;;;0.10;0.10;;;13.90;99.90;;;;;;5083768;28;20304;-78
2023/08/31 02:03:30;;;;;;;0.10;0.10;;;13.90;99.90;;;;;;5087334;28;20260;-77
2023/08/31 02:05:55;;;;;;;0.10;0.10;;;13.90;99.90;;;;;;5090036;28;20695;-78
2023/08/31 02:08:21;;;;;;;0.10;0.10;;;14.00;99.90;;;;;;5086513;28;20187;-78
2023/08/31 02:10:48;;;;;;;0.10;0.10;;;13.90;99.90;;;;;;5086716;28;20189;-78
2023/08/31 02:13:15;;;;;;;0.10;0.10;;;13.90;99.90;;;;;;5087219;28;20263;-77
2023/08/31 02:15:41;;;;;;;0.10;0.10;;;13.90;99.90;;;;;;5085398;28;20442;-77
2023/08/31 02:18:08;;;;;;;0.10;0.10;;;13.80;99.90;;;;;;5080069;28;20815;-78
2023/08/31 02:20:34;;;;;;;0.10;0.10;;;13.80;99.90;;;;;;5090959;28;20177;-78
2023/08/31 02:23:00;;;;;;;0.10;0.10;;;13.80;99.90;;;;;;5087264;28;20449;-77
2023/08/31 02:25:27;;;;;;;0.10;0.10;;;13.80;99.90;;;;;;5086082;28;20474;-77
2023/08/31 02:27:53;;;;;;;0.10;0.10;;;13.80;99.90;;;;;;5086564;28;20911;-78
2023/08/31 02:30:19;;;;;;;0.10;0.10;;;13.70;99.90;;;;;;5083799;28;20439;-78
2023/08/31 02:32:44;;;;;;;0.10;0.10;;;13.80;99.90;;;;;;5081377;28;20451;-77
2023/08/31 02:35:12;;;;;;;0.10;0.10;;;13.80;99.90;;;;;;5072498;28;20648;-77
2023/08/31 02:37:37;;;;;;;0.10;0.10;;;13.80;99.90;;;;;;5073169;28;20178;-78
2023/08/31 02:40:04;;;;;;;0.10;0.10;;;13.80;99.90;;;;;;5071677;28;20451;-77
2023/08/31 02:42:29;;;;;;;0.10;0.10;;;13.80;99.90;;;;;;5064530;28;20685;-77
2023/08/31 02:44:55;;;;;;;0.10;0.10;;;13.80;99.90;;;;;;5076975;28;20454;-77
2023/08/31 02:47:20;;;;;;;0.10;0.10;;;13.80;99.90;;;;;;5084952;28;20195;-78
2023/08/31 02:49:47;;;;;;;0.10;0.10;;;13.80;99.90;;;;;;5047081;28;20275;-77
2023/08/31 02:52:13;;;;;;;0.10;0.10;;;13.80;99.90;;;;;;5071116;28;20276;-78
2023/08/31 02:54:39;;;;;;;0.10;0.10;;;13.80;99.90;;;;;;5074742;28;20635;-78
2023/08/31 02:57:04;;;;;;;0.10;0.10;;;13.80;99.90;;;;;;5069045;28;20258;-78
2023/08/31 02:59:30;;;;;;;0.10;0.10;;;13.80;99.90;;;;;;5067728;28;20244;-77
2023/08/31 03:01:55;;;;;;;0.10;0.10;;;13.80;99.90;;;;;;5064022;28;20232;-78
2023/08/31 03:04:21;;;;;;;0.10;0.10;;;13.80;99.90;;;;;;5075506;28;20263;-77
2023/08/31 03:06:47;;;;;;;0.10;0.10;;;13.90;99.90;;;;;;5071204;28;20194;-77
2023/08/31 03:09:13;;;;;;;0.10;0.10;;;13.80;99.90;;;;;;5074861;28;20186;-77
2023/08/31 03:11:38;;;;;;;0.10;0.10;;;13.80;99.90;;;;;;5059071;28;20860;-78
2023/08/31 03:14:04;;;;;;;0.10;0.10;;;13.80;99.90;;;;;;5063969;28;20534;-78
2023/08/31 03:16:30;;;;;;;0.10;0.10;;;13.80;99.90;;;;;;5077562;28;20284;-78
2023/08/31 03:18:55;;;;;;;0.10;0.10;;;13.70;99.90;;;;;;5073064;28;20181;-78
2023/08/31 03:21:21;;;;;;;0.10;0.10;;;13.80;99.90;;;;;;5068585;28;20229;-77
2023/08/31 03:23:46;;;;;;;0.10;0.10;;;13.80;99.90;;;;;;5074374;28;20177;-77
2023/08/31 03:26:12;;;;;;;0.10;0.10;;;13.80;99.90;;;;;;5080153;28;20186;-78
2023/08/31 03:28:40;;;;;;;0.10;0.10;;;13.80;99.90;;;;;;5083040;28;20273;-77
2023/08/31 03:31:05;;;;;;;0.10;0.10;;;13.80;99.90;;;;;;5068658;28;20293;-77
2023/08/31 03:33:31;;;;;;;0.10;0.10;;;13.80;99.90;;;;;;5078866;28;20923;-77
2023/08/31 03:36:04;;;;;;;0.10;0.10;;;13.80;99.90;;;;;;5070570;28;20251;-77
2023/08/31 03:38:37;;;;;;;0.10;0.10;;;13.70;99.90;;;;;;5078409;28;20185;-77
2023/08/31 03:41:03;;;;;;;0.10;0.10;;;13.70;99.90;;;;;;5061575;28;20460;-77
2023/08/31 03:43:28;;;;;;;0.10;0.10;;;13.70;99.90;;;;;;5078337;28;20454;-78
2023/08/31 03:45:58;;;;;;;0.20;0.20;;;13.70;99.90;;;;;;5078670;28;20681;-77
2023/08/31 03:48:24;;;;;;;0.10;0.10;;;13.80;99.90;;;;;;5068531;28;20200;-77
2023/08/31 03:50:54;;;;;;;0.00;0.00;;;13.70;99.90;;;;;;5076438;28;20449;-77
2023/08/31 03:53:19;;;;;;;0.10;0.10;;;13.70;99.90;;;;;;5085140;28;20508;-77
2023/08/31 03:55:45;;;;;;;0.10;0.10;;;13.70;99.90;;;;;;5084366;28;20446;-77
2023/08/31 03:58:11;;;;;;;0.10;0.10;;;13.60;99.90;;;;;;5078005;28;20204;-77
2023/08/31 04:00:38;;;;;;;0.10;0.10;;;13.70;99.90;;;;;;5069913;28;20240;-77
2023/08/31 04:03:05;;;;;;;0.10;0.10;;;13.60;99.90;;;;;;5070327;28;20454;-77
2023/08/31 04:05:34;;;;;;;0.10;0.10;;;13.70;99.90;;;;;;5076029;28;20439;-77
2023/08/31 04:08:00;;;;;;;0.10;0.10;;;13.60;99.90;;;;;;5085330;28;20451;-76
2023/08/31 04:10:26;;;;;;;0.10;0.10;;;13.50;99.90;;;;;;5080542;28;20432;-77
2023/08/31 04:12:52;;;;;;;0.10;0.10;;;13.60;99.90;;;;;;5080830;28;20459;-77
2023/08/31 04:15:17;;;;;;;0.10;0.10;;;13.50;99.90;;;;;;5077828;28;20174;-77
2023/08/31 04:17:43;;;;;;;0.10;0.10;;;13.50;99.90;;;;;;5053519;28;20188;-77
2023/08/31 04:20:10;;;;;;;0.10;0.10;;;13.50;99.90;;;;;;5068441;28;20190;-78
2023/08/31 04:22:36;;;;;;;0.10;0.10;;;13.40;99.90;;;;;;5082206;28;20513;-77
2023/08/31 04:25:02;;;;;;;0.20;0.10;;;13.40;99.90;;;;;;5081894;28;20440;-77
2023/08/31 04:27:29;;;;;;;0.10;0.10;;;13.40;99.90;;;;;;5076651;28;20558;-77
2023/08/31 04:29:55;;;;;;;0.10;0.10;;;13.40;99.90;;;;;;5078699;28;20432;-77
2023/08/31 04:32:22;;;;;;;0.10;0.10;;;13.30;99.90;;;;;;5068549;28;20441;-77
2023/08/31 04:34:47;;;;;;;0.10;0.10;;;13.40;99.90;;;;;;5071134;28;20230;-77
2023/08/31 04:37:13;;;;;;;0.10;0.10;;;13.30;99.90;;;;;;5065177;28;20470;-77
2023/08/31 04:39:38;;;;;;;0.10;0.10;;;13.30;99.90;;;;;;5069486;28;20194;-77
2023/08/31 04:42:04;;;;;;;0.10;0.10;;;13.30;99.90;;;;;;5069032;28;20229;-77
2023/08/31 04:44:30;;;;;;;0.10;0.10;;;13.30;99.90;;;;;;5069440;28;20609;-77
2023/08/31 04:46:56;;;;;;;0.10;0.10;;;13.20;99.90;;;;;;5066641;28;20193;-77
2023/08/31 04:49:22;;;;;;;0.20;0.20;;;13.10;99.90;;;;;;5066992;28;20236;-77
2023/08/31 04:51:48;;;;;;;0.10;0.10;;;13.20;99.90;;;;;;5065698;28;20452;-77
2023/08/31 04:54:13;;;;;;;0.10;0.10;;;13.10;99.90;;;;;;5055862;28;20221;-77
2023/08/31 04:56:39;;;;;;;0.10;0.10;;;13.00;99.90;;;;;;5065994;28;20269;-77
2023/08/31 04:59:04;;;;;;;0.10;0.10;;;13.00;99.90;;;;;;5067923;28;20217;-77
2023/08/31 05:01:30;;;;;;;0.10;0.10;;;13.00;99.90;;;;;;5060515;28;20252;-77
2023/08/31 05:03:55;;;;;;;0.10;0.10;;;13.00;99.90;;;;;;5066233;28;20189;-78
2023/08/31 05:06:21;;;;;;;0.10;0.10;;;13.00;99.90;;;;;;5045186;28;20186;-77
2023/08/31 05:08:50;;;;;;;0.20;0.20;;;12.90;99.90;;;;;;5071004;28;20178;-76
2023/08/31 05:11:15;;;;;;;0.10;0.10;;;12.90;99.90;;;;;;5064998;28;20190;-77
2023/08/31 05:13:44;;;;;;;0.20;0.20;;;12.90;99.90;;;;;;5061296;28;20516;-77
2023/08/31 05:16:10;;;;;;;0.13;0.13;;;12.90;99.90;;;;;;5060744;28;20205;-77
2023/08/31 05:18:36;;;;;;;0.10;0.10;;;12.90;99.90;;;;;;5048926;28;20805;-77
2023/08/31 05:21:03;;;;;;;0.20;0.20;;;12.90;99.90;;;;;;5068968;28;20579;-77
2023/08/31 05:23:29;;;;;;;0.20;0.20;;;12.90;99.90;;;;;;5070214;28;20482;-77
2023/08/31 05:25:56;;;;;;;0.20;0.20;;;12.90;99.90;;;;;;5051087;28;20569;-77
2023/08/31 05:28:22;;;;;;;0.10;0.10;;;12.90;99.90;;;;;;5065673;28;20451;-77
2023/08/31 05:30:52;;;;;;;0.10;0.10;;;12.80;99.90;;;;;;5063578;28;20447;-77
2023/08/31 05:33:18;;;;;;;0.17;0.17;;;12.80;99.90;;;;;;5072142;28;20525;-77
2023/08/31 05:35:44;;;;;;;0.10;0.10;;;12.80;99.90;;;;;;5076919;28;20443;-76
2023/08/31 05:38:10;;;;;;;0.20;0.20;;;12.70;99.90;;;;;;5087694;28;20465;-77
2023/08/31 05:40:36;;;;;;;0.20;0.20;;;12.60;99.90;;;;;;5084168;28;20431;-77
2023/08/31 05:43:02;;;;;;;0.20;0.20;;;12.60;99.90;;;;;;5086563;28;20482;-77
2023/08/31 05:45:32;;;;;;;0.13;0.13;;;12.60;99.90;;;;;;5077758;28;20311;-79
2023/08/31 05:47:57;;;;;;;0.20;0.20;;;12.60;99.90;;;;;;5084762;28;20549;-77
2023/08/31 05:50:23;;;;;;;0.20;0.20;;;12.70;99.90;;;;;;5082193;28;20810;-76
2023/08/31 05:52:48;;;;;;;0.20;0.20;;;12.60;99.90;;;;;;5060055;28;20201;-77
2023/08/31 05:55:14;;;;;;;0.20;0.20;;;12.60;99.90;;;;;;5077368;28;20189;-77
2023/08/31 05:57:39;;;;;;;0.20;0.20;;;12.60;99.90;;;;;;5081263;28;20194;-77
2023/08/31 06:00:08;;;;;;;0.20;0.20;;;12.60;99.90;;;;;;5082236;28;20254;-77
2023/08/31 06:02:33;;;;;;;0.10;0.10;;;12.70;99.90;;;;;;5067978;28;20209;-78
2023/08/31 06:04:59;;;;;;;0.10;0.10;;;12.70;99.90;;;;;;5079015;28;20447;-77
2023/08/31 06:07:25;;;;;;;0.20;0.20;;;12.70;99.90;;;;;;5081235;28;20197;-77
2023/08/31 06:09:50;;;;;;;0.20;0.20;;;12.60;99.90;;;;;;5094352;28;20184;-77
2023/08/31 06:12:16;;;;;;;0.10;0.10;;;12.70;99.90;;;;;;5084373;28;20524;-78
2023/08/31 06:14:41;;;;;;;0.20;0.20;;;12.70;99.90;;;;;;5084252;28;20214;-77
2023/08/31 06:17:08;;;;;;;0.20;0.20;;;12.80;99.90;;;;;;5085677;28;20219;-78
2023/08/31 06:19:33;;;;;;;0.20;0.20;;;12.90;99.90;;;;;;5088182;28;20198;-77
2023/08/31 06:21:59;;;;;;;0.20;0.20;;;13.00;99.90;;;;;;5088787;28;20920;-77
2023/08/31 06:24:24;;;;;;;0.10;0.10;;;13.10;99.90;;;;;;5085100;28;20543;-77
2023/08/31 06:26:50;;;;;;;0.10;0.10;;;13.10;99.90;;;;;;5072501;28;20710;-77
2023/08/31 06:29:16;;;;;;;0.10;0.10;;;13.20;99.90;;;;;;5086911;28;20185;-77
2023/08/31 06:31:41;;;;;;;0.10;0.10;;;13.30;99.90;;;;;;5086355;28;20591;-77
2023/08/31 06:34:06;;;;;;;0.10;0.10;;;13.50;99.90;;;;;;5073525;28;20224;-79
2023/08/31 06:36:32;;;;;;;0.10;0.10;;;13.70;99.90;;;;;;5081633;28;20200;-78
2023/08/31 06:38:58;;;;;;;0.10;0.10;;;13.80;99.90;;;;;;5087277;28;20199;-78
2023/08/31 06:41:23;;;;;;;0.20;0.20;;;13.80;99.90;;;;;;5080492;28;20214;-79
2023/08/31 06:43:49;;;;;;;0.10;0.10;;;13.90;99.90;;;;;;5089816;28;20189;-79
2023/08/31 06:46:14;;;;;;;0.10;0.10;;;13.90;99.90;;;;;;5091900;28;20188;-78
2023/08/31 06:48:40;;;;;;;0.10;0.10;;;14.00;99.90;;;;;;5077354;28;20183;-78
2023/08/31 06:51:05;;;;;;;0.10;0.10;;;14.00;99.90;;;;;;5068635;28;20214;-79
2023/08/31 06:53:33;;;;;;;0.10;0.10;;;14.20;99.90;;;;;;5089316;28;20652;-79
2023/08/31 06:55:59;;;;;;;0.10;0.10;;;14.20;99.90;;;;;;5071224;28;20189;-79
2023/08/31 06:58:24;;;;;;;0.10;0.10;;;14.20;99.90;;;;;;5094542;28;20873;-78
2023/08/31 07:00:50;;;;;;;0.10;0.10;;;14.10;99.90;;;;;;5068883;28;20208;-79
2023/08/31 07:03:15;;;;;;;0.10;0.10;;;14.10;99.90;;;;;;5056087;28;20182;-78
2023/08/31 07:05:42;;;;;;;0.10;0.10;;;14.20;99.90;;;;;;5070005;28;20185;-78
2023/08/31 07:08:08;;;;;;;0.10;0.10;;;14.10;99.90;;;;;;5069157;28;20221;-78
2023/08/31 07:10:36;;;;;;;0.10;0.10;;;14.20;99.90;;;;;;5088205;28;20481;-78
2023/08/31 07:13:03;;;;;;;0.10;0.10;;;14.20;99.90;;;;;;5087943;28;20184;-78
2023/08/31 07:15:29;;;;;;;0.10;0.10;;;14.30;99.90;;;;;;5092499;28;20466;-78
2023/08/31 07:17:54;;;;;;;0.10;0.10;;;14.40;99.90;;;;;;5094356;28;20482;-78
2023/08/31 07:20:20;;;;;;;0.10;0.10;;;14.50;99.90;;;;;;5095539;28;20192;-77
2023/08/31 07:22:45;;;;;;;0.10;0.10;;;14.40;99.90;;;;;;5072872;28;20220;-77
2023/08/31 07:25:11;;;;;;;0.10;0.10;;;14.40;99.90;;;;;;5091399;28;20193;-77
2023/08/31 07:27:37;;;;;;;0.10;0.10;;;14.30;99.90;;;;;;5099755;28;20268;-77
2023/08/31 07:30:04;;;;;;;0.10;0.10;;;14.40;99.90;;;;;;5055806;28;20518;-78
2023/08/31 07:32:29;;;;;;;0.10;0.10;;;14.30;99.90;;;;;;5085760;28;20188;-78
2023/08/31 07:34:55;;;;;;;0.10;0.10;;;14.30;99.90;;;;;;5092839;28;20463;-79
2023/08/31 07:37:20;;;;;;;0.10;0.10;;;14.40;99.90;;;;;;5093120;28;20191;-78
2023/08/31 07:39:46;;;;;;;0.10;0.10;;;14.50;99.90;;;;;;5083978;28;20221;-77
2023/08/31 07:42:11;;;;;;;0.10;0.10;;;14.80;99.90;;;;;;5086474;28;20233;-78
2023/08/31 07:44:37;;;;;;;0.10;0.10;;;14.80;99.90;;;;;;5060151;28;20209;-79
2023/08/31 07:47:03;;;;;;;0.10;0.10;;;15.10;99.90;;;;;;5089562;28;20226;-78
2023/08/31 07:49:28;;;;;;;0.10;0.10;;;15.40;99.90;;;;;;5067093;28;20732;-78
2023/08/31 07:51:54;;;;;;;0.10;0.10;;;15.60;99.90;;;;;;5091565;28;20220;-78
2023/08/31 07:54:20;;;;;;;0.10;0.10;;;15.70;99.90;;;;;;5099460;28;20174;-79
2023/08/31 07:56:46;;;;;;;0.10;0.10;;;15.80;99.90;;;;;;5088574;28;20188;-80
2023/08/31 07:59:12;;;;;;;0.10;0.10;;;16.00;99.90;;;;;;5072638;28;20972;-82
2023/08/31 08:01:37;;;;;;;0.10;0.10;;;15.90;99.90;;;;;;5071929;28;20217;-81
2023/08/31 08:04:03;;;;;;;0.10;0.10;;;15.90;99.90;;;;;;5087195;28;20220;-78
2023/08/31 08:06:28;;;;;;;0.10;0.10;;;16.00;99.90;;;;;;5081949;28;20189;-80
2023/08/31 08:08:54;;;;;;;0.10;0.10;;;15.80;99.90;;;;;;5080366;28;20196;-78
2023/08/31 08:11:22;;;;;;;0.10;0.10;;;15.90;99.90;;;;;;5081302;28;20212;-79
2023/08/31 08:13:48;;;;;;;0.10;0.10;;;16.00;99.90;;;;;;5081030;28;20251;-80
2023/08/31 08:16:14;;;;;;;0.10;0.10;;;16.20;99.90;;;;;;5074052;28;20938;-79
2023/08/31 08:18:40;;;;;;;0.10;0.10;;;16.50;99.90;;;;;;5086225;28;20604;-80
2023/08/31 08:21:06;;;;;;;0.10;0.10;;;16.70;99.90;;;;;;5094530;28;20219;-80
2023/08/31 08:23:31;;;;;;;0.10;0.10;;;16.60;99.90;;;;;;5089626;28;20822;-81
2023/08/31 08:25:59;;;;;;;0.10;0.10;;;16.70;99.90;;;;;;5084067;28;20763;-80
2023/08/31 08:28:25;;;;;;;0.10;0.10;;;16.80;99.90;;;;;;5071154;28;20207;-80
2023/08/31 08:30:50;;;;;;;0.10;0.10;;;16.60;99.90;;;;;;5097513;28;20440;-80
2023/08/31 08:33:16;;;;;;;0.10;0.10;;;16.80;99.90;;;;;;5085033;28;21480;-79
2023/08/31 08:35:41;;;;;;;0.10;0.10;;;16.80;99.90;;;;;;5088411;28;20195;-78
2023/08/31 08:38:07;;;;;;;0.10;0.10;;;17.00;99.90;;;;;;5086881;28;20220;-81
2023/08/31 08:40:33;;;;;;;0.10;0.10;;;17.10;99.90;;;;;;5086811;28;20185;-78
2023/08/31 08:43:01;;;;;;;0.10;0.10;;;17.40;99.90;;;;;;5083193;28;20269;-79
2023/08/31 08:45:32;;;;;;;0.10;0.10;;;17.60;99.90;;;;;;5072503;28;20432;-79
2023/08/31 08:47:58;;;;;;;0.10;0.10;;;17.70;99.90;;;;;;5087380;28;20439;-80
2023/08/31 08:50:24;;;;;;;0.10;0.10;;;17.60;99.90;;;;;;5099488;28;20492;-79
2023/08/31 08:52:51;;;;;;;0.10;0.10;;;17.30;99.90;;;;;;5092764;28;20208;-78
2023/08/31 08:55:16;;;;;;;0.10;0.10;;;17.70;99.90;;;;;;5049225;28;20549;-79
2023/08/31 08:57:42;;;;;;;0.10;0.10;;;18.20;99.90;;;;;;5089397;28;20997;-79
2023/08/31 09:00:08;;;;;;;0.10;0.10;;;18.30;99.90;;;;;;5080074;28;20212;-80
2023/08/31 09:02:34;;;;;;;0.10;0.10;;;18.50;99.90;;;;;;5083147;28;20219;-80
2023/08/31 09:04:59;;;;;;;0.10;0.10;;;18.60;99.90;;;;;;5093705;28;20518;-80
2023/08/31 09:07:29;;;;;;;0.10;0.10;;;18.80;99.90;;;;;;5067024;28;20192;-80
2023/08/31 09:09:54;;;;;;;0.10;0.10;;;18.20;99.90;;;;;;5091288;28;20233;-79
2023/08/31 09:12:24;;;;;;;0.10;0.10;;;18.00;99.90;;;;;;5080578;28;20837;-79
2023/08/31 09:15:06;;;;;;;0.10;0.10;;;18.20;99.90;;;;;;5101723;28;20184;-79
2023/08/31 09:17:44;;;;;;;0.10;0.10;;;18.50;99.90;;;;;;5089718;28;20479;-80
2023/08/31 09:20:10;;;;;;;0.10;0.10;;;18.90;99.90;;;;;;5054804;28;20451;-79
2023/08/31 09:22:36;;;;;;;0.10;0.10;;;19.20;99.90;;;;;;5055743;28;20973;-80
2023/08/31 09:25:02;;;;;;;0.10;0.10;;;19.00;99.90;;;;;;5086286;27;20656;-80
2023/08/31 09:27:28;;;;;;;0.10;0.10;;;18.70;99.90;;;;;;5090337;28;20439;-79
2023/08/31 09:29:57;;;;;;;0.10;0.10;;;18.60;99.90;;;;;;5087038;28;20435;-80
2023/08/31 09:32:23;;;;;;;0.00;0.00;;;18.60;99.90;;;;;;5091201;28;20188;-81
2023/08/31 09:34:49;;;;;;;0.10;0.10;;;18.60;99.90;;;;;;5071052;28;20480;-79
2023/08/31 09:37:16;;;;;;;0.10;0.10;;;19.40;99.90;;;;;;5077556;28;20181;-82
2023/08/31 09:39:42;;;;;;;0.10;0.10;;;19.60;99.90;;;;;;5097070;28;20181;-80
2023/08/31 09:42:08;;;;;;;0.10;0.10;;;19.20;99.90;;;;;;5083759;28;20482;-79
2023/08/31 09:44:34;;;;;;;0.10;0.10;;;19.60;99.90;;;;;;5077431;28;20444;-81
2023/08/31 09:47:00;;;;;;;0.10;0.10;;;20.00;99.90;;;;;;5082421;28;20450;-80
2023/08/31 09:49:26;;;;;;;0.10;0.10;;;20.00;99.90;;;;;;5088313;28;20659;-79
2023/08/31 09:51:52;;;;;;;0.10;0.10;;;20.00;99.90;;;;;;5081732;28;20451;-79
2023/08/31 09:54:21;;;;;;;0.10;0.10;;;20.20;99.90;;;;;;5087855;28;20431;-80
2023/08/31 09:56:47;;;;;;;0.10;0.10;;;20.80;99.90;;;;;;5065401;28;20807;-79
2023/08/31 09:59:15;;;;;;;0.10;0.10;;;20.10;99.90;;;;;;5078418;28;20488;-78
2023/08/31 10:01:42;;;;;;;0.10;0.10;;;19.90;99.90;;;;;;5080380;28;20520;-79
2023/08/31 10:04:08;;;;;;;0.10;0.10;;;19.90;99.90;;;;;;5075662;28;20850;-79
2023/08/31 10:06:40;;;;;;;0.10;0.10;;;18.80;99.90;;;;;;5076986;28;20577;-78
2023/08/31 10:09:06;;;;;;;0.10;0.10;;;18.60;99.90;;;;;;5072722;28;20474;-80
2023/08/31 10:11:33;;;;;;;0.10;0.10;;;18.60;99.90;;;;;;5070382;28;20499;-81
2023/08/31 10:13:59;;;;;;;0.10;0.10;;;18.80;99.90;;;;;;5074485;28;20252;-77
2023/08/31 10:16:27;;;;;;;0.10;0.10;;;19.60;99.90;;;;;;5066028;28;20450;-78
2023/08/31 10:18:55;;;;;;;0.10;0.10;;;20.60;99.90;;;;;;5065977;28;20557;-77
2023/08/31 10:21:21;;;;;;;0.10;0.10;;;19.70;99.90;;;;;;5076253;28;20474;-81
2023/08/31 10:23:51;;;;;;;0.10;0.10;;;20.10;99.90;;;;;;5081735;28;20523;-79
2023/08/31 10:26:28;;;;;;;0.00;0.00;;;19.90;99.90;;;;;;5066386;28;20493;-78
2023/08/31 10:28:54;;;;;;;0.00;0.00;;;19.30;99.90;;;;;;5078000;28;20896;-79
2023/08/31 10:31:23;;;;;;;0.00;0.00;;;19.30;99.90;;;;;;5080954;28;20937;-79
2023/08/31 10:34:03;;;;;;;0.00;0.00;;;20.20;99.90;;;;;;5084120;28;20474;-78
2023/08/31 10:36:37;;;;;;;0.00;0.00;;;20.80;99.90;;;;;;5075161;28;20946;-78
2023/08/31 10:39:13;;;;;;;0.00;0.00;;;20.70;99.90;;;;;;5074584;28;21260;-77
2023/08/31 10:41:39;;;;;;;0.00;0.00;;;21.60;99.90;;;;;;5072917;28;21338;-81
2023/08/31 10:44:25;;;;;;;0.00;0.00;;;21.40;99.90;;;;;;5062596;28;20446;-80
2023/08/31 10:46:52;;;;;;;0.00;0.00;;;21.70;99.90;;;;;;5080613;28;20464;-79
2023/08/31 10:49:20;;;;;;;0.00;0.00;;;20.60;99.90;;;;;;5078420;28;20973;-80
2023/08/31 10:51:56;;;;;;;0.00;0.00;;;19.50;99.90;;;;;;5089583;28;20444;-80
2023/08/31 10:54:35;;;;;;;0.00;0.00;;;20.00;99.90;;;;;;5075960;28;20444;-80
2023/08/31 10:57:04;;;;;;;0.00;0.00;;;20.80;99.90;;;;;;5086376;28;20487;-79
2023/08/31 10:59:46;;;;;;;0.00;0.00;;;21.30;99.90;;;;;;5055920;28;20500;-81
2023/08/31 11:02:31;;;;;;;0.00;0.00;;;21.20;99.90;;;;;;5084756;28;20489;-79
2023/08/31 11:05:11;;;;;;;0.00;0.00;;;20.10;99.90;;;;;;5090401;28;20450;-79
2023/08/31 11:07:38;;;;;;;0.00;0.00;;;19.80;99.90;;;;;;5059897;28;20439;-79
2023/08/31 11:10:14;;;;;;;0.00;0.00;;;20.30;99.90;;;;;;5076019;28;20530;-79
2023/08/31 11:12:41;;;;;;;0.00;0.00;;;21.40;99.90;;;;;;5083269;28;20442;-80
2023/08/31 11:15:07;;;;;;;0.00;0.00;;;21.40;99.90;;;;;;5065396;28;20450;-78
2023/08/31 11:17:33;;;;;;;0.00;0.00;;;21.50;99.90;;;;;;5100827;28;20953;-79
2023/08/31 11:19:59;;;;;;;0.00;0.00;;;20.70;99.90;;;;;;5085180;28;20712;-79
2023/08/31 11:22:25;;;;;;;0.00;0.00;;;20.10;99.90;;;;;;5084839;28;20547;-79
2023/08/31 11:24:51;;;;;;;0.00;0.00;;;19.70;99.90;;;;;;5086219;28;20439;-79
2023/08/31 11:27:21;;;;;;;0.00;0.00;;;19.30;99.90;;;;;;5062885;28;20457;-79
2023/08/31 11:29:47;;;;;;;0.00;0.00;;;19.50;99.90;;;;;;5067462;28;20181;-79
2023/08/31 11:32:14;;;;;;;0.00;0.00;;;20.20;99.90;;;;;;5085576;28;20442;-80
2023/08/31 11:34:44;;;;;;;0.00;0.00;;;21.30;99.90;;;;;;5079302;28;20309;-79
2023/08/31 11:37:14;;;;;;;0.00;0.00;;;20.60;99.90;;;;;;5079691;28;20991;-80
2023/08/31 11:39:40;;;;;;;0.00;0.00;;;21.00;99.90;;;;;;5088195;28;20446;-80
2023/08/31 11:42:06;;;;;;;0.00;0.00;;;21.50;99.90;;;;;;5086464;28;20486;-80
2023/08/31 11:44:31;;;;;;;0.00;0.00;;;22.50;99.90;;;;;;5085819;28;20273;-80
2023/08/31 11:46:58;;;;;;;0.00;0.00;;;23.60;99.90;;;;;;5073666;28;20193;-82
2023/08/31 11:49:26;;;;;;;0.00;0.00;;;24.60;99.90;;;;;;5087105;28;20473;-81
2023/08/31 11:51:52;;;;;;;0.00;0.00;;;24.50;99.90;;;;;;5076043;28;20442;-81
2023/08/31 11:54:17;;;;;;;0.00;0.00;;;24.80;99.90;;;;;;5089819;28;20926;-80
2023/08/31 11:56:47;;;;;;;0.00;0.00;;;25.60;99.90;;;;;;5088202;28;20188;-81
2023/08/31 11:59:16;;;;;;;0.00;0.00;;;25.40;99.90;;;;;;5084391;28;20221;-80
2023/08/31 12:01:49;;;;;;;0.00;0.00;;;24.00;99.90;;;;;;5090507;28;20513;-80
2023/08/31 12:04:17;;;;;;;0.00;0.00;;;24.90;99.90;;;;;;5065976;28;20473;-79
2023/08/31 12:06:47;;;;;;;0.00;0.00;;;24.40;99.90;;;;;;5085326;28;20447;-80
2023/08/31 12:09:13;;;;;;;0.00;0.00;;;24.00;99.90;;;;;;5084631;28;20439;-80
2023/08/31 12:11:38;;;;;;;0.00;0.00;;;23.60;99.90;;;;;;5088562;28;21186;-80
2023/08/31 12:14:21;;;;;;;0.00;0.00;;;22.70;99.90;;;;;;5081526;28;20307;-80
2023/08/31 12:16:47;;;;;;;0.00;0.00;;;21.70;99.90;;;;;;5082518;28;20218;-80
2023/08/31 12:19:12;;;;;;;0.00;0.00;;;21.20;99.90;;;;;;5084691;28;20462;-80
2023/08/31 12:21:39;;;;;;;0.00;0.00;;;22.80;99.90;;;;;;5072802;28;20211;-82
2023/08/31 12:24:06;;;;;;;0.00;0.00;;;23.70;99.90;;;;;;5060774;28;20597;-79
2023/08/31 12:26:31;;;;;;;0.00;0.00;;;24.30;99.90;;;;;;5081798;28;20956;-80
2023/08/31 12:28:57;;;;;;;0.00;0.00;;;24.00;99.90;;;;;;5047146;28;20662;-82
2023/08/31 12:31:23;;;;;;;0.00;0.00;;;24.50;99.90;;;;;;5088934;28;20264;-82
2023/08/31 12:33:48;;;;;;;0.00;0.00;;;24.50;99.90;;;;;;5088937;28;20221;-81
2023/08/31 12:36:14;;;;;;;0.00;0.00;;;24.70;99.90;;;;;;5072406;28;20192;-81
2023/08/31 12:38:40;;;;;;;0.00;0.00;;;25.00;99.90;;;;;;5086902;28;20653;-81
2023/08/31 12:41:05;;;;;;;0.00;0.00;;;25.00;99.90;;;;;;5087650;28;20209;-82
2023/08/31 12:43:31;;;;;;;0.00;0.00;;;25.50;99.90;;;;;;5072127;28;20459;-81
2023/08/31 12:45:57;;;;;;;0.00;0.00;;;26.20;99.90;;;;;;5087343;28;20688;-82
2023/08/31 12:48:23;;;;;;;0.00;0.00;;;25.30;99.90;;;;;;5069220;28;20760;-82